Contship IVy — 5BES4 — position and weather

sailwx.info

Track history (hours):
 
Tides and Currents Weather Stations Pressure Air Temp Water Temp Dewpoint Dewpoint Depression Visibility Wind Speed Wind Dir Waves Ship Positions

Contship IVy

Last reported at 2018-Jun-19 19:17 UTC. Time now 2018-Jun-19 23:31 UTC.
Position N 37°51' E 015°55'.

Length 180 m; draft 9.4 m.

Type: Ship (hazmat cat A). MMSI: 212267000.

Date/timePositionNaut miles runAvg speedWind from/ knotsBaromVisibWave heightAir tempDewpointWater temp
2018-Jun-19 19:17N 37°51' E 015°55'515.6
2018-Jun-19 18:59N 37°51' E 015°49'715.4
2018-Jun-19 18:30N 37°52' E 015°40'714.9
2018-Jun-19 18:00N 37°58' E 015°34'816.2
2018-Jun-19 17:30N 38°06' E 015°34'815.8
2018-Jun-19 17:00N 38°14' E 015°36'713.6
2018-Jun-19 16:30N 38°19' E 015°42'713.4
2018-Jun-19 16:00N 38°24' E 015°48'6 1.4
2018-Jun-19 11:55N 38°27' E 015°54'0 0.0
2018-Jun-19 10:37N 38°27' E 015°54'0 0.0
2018-Jun-17 08:16N 38°27' E 015°54'1 1.6
2018-Jun-17 07:54N 38°27' E 015°54'3 7.3
2018-Jun-17 07:30N 38°26' E 015°50'714.3
2018-Jun-17 07:00N 38°20' E 015°45'713.9
2018-Jun-17 06:30N 38°15' E 015°39'612.5
2018-Jun-17 06:00N 38°09' E 015°36'611.8
2018-Jun-17 05:30N 38°03' E 015°35'611.5
2018-Jun-17 05:00N 37°57' E 015°36'710.4
2018-Jun-17 04:17N 37°51' E 015°41'412.7
2018-Jun-17 04:00N 37°51' E 015°45'713.0
2018-Jun-17 03:29N 37°51' E 015°54'  
2018-Jun-13 01:55N 37°51' E 015°55'716.0
2018-Jun-13 01:29N 37°51' E 015°46'815.3
2018-Jun-13 00:59N 37°54' E 015°37'816.4
2018-Jun-13 00:30N 38°01' E 015°33'816.4
2018-Jun-13 00:00N 38°09' E 015°35'713.6
2018-Jun-12 23:30N 38°15' E 015°38'713.5
2018-Jun-12 23:00N 38°21' E 015°44'713.8
2018-Jun-12 22:30N 38°25' E 015°50'4 0.5
2018-Jun-12 15:08N 38°27' E 015°54'0 0.0
2018-Jun-12 13:08N 38°27' E 015°54'0 0.0
2018-Jun-12 12:50N 38°27' E 015°54'0 0.0
2018-Jun-12 12:26N 38°27' E 015°54'0 0.0
2018-Jun-12 11:56N 38°27' E 015°54'0 0.0
2018-Jun-12 11:23N 38°27' E 015°54'0 0.0
2018-Jun-12 10:38N 38°27' E 015°54'0 0.0
2018-Jun-12 10:26N 38°27' E 015°54'0 0.0
2018-Jun-12 09:44N 38°27' E 015°54'0 0.0
2018-Jun-12 09:26N 38°27' E 015°54'0 0.0
2018-Jun-12 08:56N 38°27' E 015°54'0 0.0
2018-Jun-12 08:26N 38°27' E 015°54'0 0.0
2018-Jun-12 07:50N 38°27' E 015°54'0 0.0
2018-Jun-12 07:20N 38°27' E 015°54'0 0.0
2018-Jun-12 01:56N 38°27' E 015°54'0 0.0
2018-Jun-12 01:26N 38°27' E 015°54'0 0.0
2018-Jun-12 00:50N 38°27' E 015°54'0 0.0
2018-Jun-12 00:20N 38°27' E 015°54'0 0.0
2018-Jun-11 23:44N 38°27' E 015°54'0 0.0
2018-Jun-11 23:26N 38°27' E 015°54'0 0.0
2018-Jun-11 22:56N 38°27' E 015°54'0 0.0
2018-Jun-11 22:26N 38°27' E 015°54'0 0.0
2018-Jun-11 21:56N 38°27' E 015°54'0 0.0
2018-Jun-11 21:26N 38°27' E 015°54'0 0.0
2018-Jun-11 20:56N 38°27' E 015°54'0 0.0
2018-Jun-11 20:26N 38°27' E 015°54'0 0.0
2018-Jun-11 19:56N 38°27' E 015°54'0 0.0
2018-Jun-11 19:26N 38°27' E 015°54'0 0.0
2018-Jun-11 18:56N 38°27' E 015°54'0 0.0
2018-Jun-11 18:26N 38°27' E 015°54'0 0.0
2018-Jun-11 17:56N 38°27' E 015°54'0 0.0
2018-Jun-11 17:26N 38°27' E 015°54'0 0.0
2018-Jun-11 16:56N 38°27' E 015°54'0 0.0
2018-Jun-11 16:26N 38°27' E 015°54'0 0.0
2018-Jun-11 15:56N 38°27' E 015°54'0 0.0
2018-Jun-11 15:26N 38°27' E 015°54'0 0.0
2018-Jun-11 14:56N 38°27' E 015°54'0 0.0
2018-Jun-11 14:26N 38°27' E 015°54'0 0.0
2018-Jun-11 13:56N 38°27' E 015°54'0 0.0
2018-Jun-11 13:26N 38°27' E 015°54'0 0.0
2018-Jun-11 12:56N 38°27' E 015°54'0 0.0
2018-Jun-11 12:26N 38°27' E 015°54'0 0.0
2018-Jun-11 11:56N 38°27' E 015°54'0 0.0
2018-Jun-11 11:26N 38°27' E 015°54'0 0.0
2018-Jun-11 10:50N 38°27' E 015°54'0 0.0
2018-Jun-11 10:26N 38°27' E 015°54'0 0.0
2018-Jun-11 09:56N 38°27' E 015°54'0 0.2
2018-Jun-11 09:30N 38°27' E 015°54'2 3.0
2018-Jun-11 09:00N 38°27' E 015°53'5 9.8
2018-Jun-11 08:30N 38°24' E 015°48'713.2
2018-Jun-11 08:00N 38°18' E 015°43'611.4
2018-Jun-11 07:30N 38°14' E 015°38'510.6
2018-Jun-11 07:00N 38°09' E 015°36'611.8
2018-Jun-11 06:30N 38°03' E 015°35'612.3
2018-Jun-11 05:59N 37°57' E 015°36'611.3
2018-Jun-11 05:28N 37°52' E 015°40'612.8
2018-Jun-11 05:00N 37°51' E 015°47'  
Track history (hours):
 
Tides and Currents Weather Stations Pressure Air Temp Water Temp Dewpoint Dewpoint Depression Visibility Wind Speed Wind Dir Waves Ship Positions

Contship IVy

Last reported at 2018-Jun-19 19:17 UTC. Time now 2018-Jun-19 23:31 UTC.
Position N 37°51' E 015°55'.

Length 180 m; draft 9.4 m.

Type: Ship (hazmat cat A). MMSI: 212267000.

Date/timePositionNaut miles runAvg speedWind from/ knotsBaromVisibWave heightAir tempDewpointWater temp
2018-Jun-19 19:17N 37°51' E 015°55'515.6
2018-Jun-19 18:59N 37°51' E 015°49'715.4
2018-Jun-19 18:30N 37°52' E 015°40'714.9
2018-Jun-19 18:00N 37°58' E 015°34'816.2
2018-Jun-19 17:30N 38°06' E 015°34'815.8
2018-Jun-19 17:00N 38°14' E 015°36'713.6
2018-Jun-19 16:30N 38°19' E 015°42'713.4
2018-Jun-19 16:00N 38°24' E 015°48'6 1.4
2018-Jun-19 11:55N 38°27' E 015°54'0 0.0
2018-Jun-19 10:37N 38°27' E 015°54'0 0.0
2018-Jun-17 08:16N 38°27' E 015°54'1 1.6
2018-Jun-17 07:54N 38°27' E 015°54'3 7.3
2018-Jun-17 07:30N 38°26' E 015°50'714.3
2018-Jun-17 07:00N 38°20' E 015°45'713.9
2018-Jun-17 06:30N 38°15' E 015°39'612.5
2018-Jun-17 06:00N 38°09' E 015°36'611.8
2018-Jun-17 05:30N 38°03' E 015°35'611.5
2018-Jun-17 05:00N 37°57' E 015°36'710.4
2018-Jun-17 04:17N 37°51' E 015°41'412.7
2018-Jun-17 04:00N 37°51' E 015°45'713.0
2018-Jun-17 03:29N 37°51' E 015°54'  
2018-Jun-13 01:55N 37°51' E 015°55'716.0
2018-Jun-13 01:29N 37°51' E 015°46'815.3
2018-Jun-13 00:59N 37°54' E 015°37'816.4
2018-Jun-13 00:30N 38°01' E 015°33'816.4
2018-Jun-13 00:00N 38°09' E 015°35'713.6
2018-Jun-12 23:30N 38°15' E 015°38'713.5
2018-Jun-12 23:00N 38°21' E 015°44'713.8
2018-Jun-12 22:30N 38°25' E 015°50'4 0.5
2018-Jun-12 15:08N 38°27' E 015°54'0 0.0
2018-Jun-12 13:08N 38°27' E 015°54'0 0.0
2018-Jun-12 12:50N 38°27' E 015°54'0 0.0
2018-Jun-12 12:26N 38°27' E 015°54'0 0.0
2018-Jun-12 11:56N 38°27' E 015°54'0 0.0
2018-Jun-12 11:23N 38°27' E 015°54'0 0.0
2018-Jun-12 10:38N 38°27' E 015°54'0 0.0
2018-Jun-12 10:26N 38°27' E 015°54'0 0.0
2018-Jun-12 09:44N 38°27' E 015°54'0 0.0
2018-Jun-12 09:26N 38°27' E 015°54'0 0.0
2018-Jun-12 08:56N 38°27' E 015°54'0 0.0
2018-Jun-12 08:26N 38°27' E 015°54'0 0.0
2018-Jun-12 07:50N 38°27' E 015°54'0 0.0
2018-Jun-12 07:20N 38°27' E 015°54'0 0.0
2018-Jun-12 01:56N 38°27' E 015°54'0 0.0
2018-Jun-12 01:26N 38°27' E 015°54'0 0.0
2018-Jun-12 00:50N 38°27' E 015°54'0 0.0
2018-Jun-12 00:20N 38°27' E 015°54'0 0.0
2018-Jun-11 23:44N 38°27' E 015°54'0 0.0
2018-Jun-11 23:26N 38°27' E 015°54'0 0.0
2018-Jun-11 22:56N 38°27' E 015°54'0 0.0
2018-Jun-11 22:26N 38°27' E 015°54'0 0.0
2018-Jun-11 21:56N 38°27' E 015°54'0 0.0
2018-Jun-11 21:26N 38°27' E 015°54'0 0.0
2018-Jun-11 20:56N 38°27' E 015°54'0 0.0
2018-Jun-11 20:26N 38°27' E 015°54'0 0.0
2018-Jun-11 19:56N 38°27' E 015°54'0 0.0
2018-Jun-11 19:26N 38°27' E 015°54'0 0.0
2018-Jun-11 18:56N 38°27' E 015°54'0 0.0
2018-Jun-11 18:26N 38°27' E 015°54'0 0.0
2018-Jun-11 17:56N 38°27' E 015°54'0 0.0
2018-Jun-11 17:26N 38°27' E 015°54'0 0.0
2018-Jun-11 16:56N 38°27' E 015°54'0 0.0
2018-Jun-11 16:26N 38°27' E 015°54'0 0.0
2018-Jun-11 15:56N 38°27' E 015°54'0 0.0
2018-Jun-11 15:26N 38°27' E 015°54'0 0.0
2018-Jun-11 14:56N 38°27' E 015°54'0 0.0
2018-Jun-11 14:26N 38°27' E 015°54'0 0.0
2018-Jun-11 13:56N 38°27' E 015°54'0 0.0
2018-Jun-11 13:26N 38°27' E 015°54'0 0.0
2018-Jun-11 12:56N 38°27' E 015°54'0 0.0
2018-Jun-11 12:26N 38°27' E 015°54'0 0.0
2018-Jun-11 11:56N 38°27' E 015°54'0 0.0
2018-Jun-11 11:26N 38°27' E 015°54'0 0.0
2018-Jun-11 10:50N 38°27' E 015°54'0 0.0
2018-Jun-11 10:26N 38°27' E 015°54'0 0.0
2018-Jun-11 09:56N 38°27' E 015°54'0 0.2
2018-Jun-11 09:30N 38°27' E 015°54'2 3.0
2018-Jun-11 09:00N 38°27' E 015°53'5 9.8
2018-Jun-11 08:30N 38°24' E 015°48'713.2
2018-Jun-11 08:00N 38°18' E 015°43'611.4
2018-Jun-11 07:30N 38°14' E 015°38'510.6
2018-Jun-11 07:00N 38°09' E 015°36'611.8
2018-Jun-11 06:30N 38°03' E 015°35'612.3
2018-Jun-11 05:59N 37°57' E 015°36'611.3
2018-Jun-11 05:28N 37°52' E 015°40'612.8
2018-Jun-11 05:00N 37°51' E 015°47'  

Dump ship's entire track history